Time;durP1;ratioP1;P1;durP2;ratioP2;P2;SDS_P1;SDS_P2;PMS_P1;PMS_P2;Temp;Humidity;BMP_temperature;BMP_pressure;BME280_temperature;BME280_humidity;BME280_pressure;Samples;Min_cycle;Max_cycle;Signal;HPM_P1;HPM_P2
2022/10/17 00:04:45;;;;;;;29.55;23.75;;;;;;;;;;9971312;28;20050;-69
2022/10/17 00:09:42;;;;;;;32.90;24.83;;;;;;;;;;9982897;28;20048;-68
2022/10/17 00:14:36;;;;;;;31.30;23.77;;;;;;;;;;9980268;28;20444;-68
2022/10/17 00:19:30;;;;;;;35.70;24.20;;;;;;;;;;9982325;28;20429;-67
2022/10/17 00:24:24;;;;;;;33.65;23.35;;;;;;;;;;9985293;28;20415;-68
2022/10/17 00:29:18;;;;;;;28.20;23.65;;;;;;;;;;9985646;28;20046;-68
2022/10/17 00:34:12;;;;;;;30.98;23.77;;;;;;;;;;9976388;28;20535;-69
2022/10/17 00:39:06;;;;;;;30.17;23.17;;;;;;;;;;9990778;28;20072;-69
2022/10/17 00:44:02;;;;;;;27.85;23.60;;;;;;;;;;9990337;28;20050;-69
2022/10/17 00:48:59;;;;;;;29.45;23.58;;;;;;;;;;9987435;28;20469;-69
2022/10/17 00:53:54;;;;;;;23.20;20.35;;;;;;;;;;10005532;28;20054;-69
2022/10/17 00:58:47;;;;;;;30.58;23.23;;;;;;;;;;9999641;28;20061;-69
2022/10/17 01:03:42;;;;;;;28.52;21.92;;;;;;;;;;9985727;28;20043;-69
2022/10/17 01:08:35;;;;;;;30.48;19.27;;;;;;;;;;9989309;28;20042;-69
2022/10/17 01:13:31;;;;;;;24.02;21.42;;;;;;;;;;9983959;28;20054;-68
2022/10/17 01:18:46;;;;;;;30.45;20.98;;;;;;;;;;9979853;28;20054;-69
2022/10/17 01:24:00;;;;;;;27.35;20.42;;;;;;;;;;9982703;28;20498;-69
2022/10/17 01:29:29;;;;;;;28.90;20.70;;;;;;;;;;9976104;28;20096;-68
2022/10/17 01:34:31;;;;;;;25.13;21.88;;;;;;;;;;9975358;28;20105;-68
2022/10/17 01:39:47;;;;;;;31.27;21.15;;;;;;;;;;9985021;28;20137;-68
2022/10/17 01:45:03;;;;;;;33.80;22.48;;;;;;;;;;9981883;28;20108;-68
2022/10/17 01:50:23;;;;;;;31.80;24.08;;;;;;;;;;9978990;28;20050;-69
2022/10/17 01:55:38;;;;;;;28.35;23.10;;;;;;;;;;9987519;28;20047;-69
2022/10/17 02:00:31;;;;;;;35.05;22.90;;;;;;;;;;9982404;28;20118;-69
2022/10/17 02:05:30;;;;;;;29.50;22.58;;;;;;;;;;9964210;28;20185;-68
2022/10/17 02:11:00;;;;;;;26.95;21.88;;;;;;;;;;9959840;28;20050;-68
2022/10/17 02:16:16;;;;;;;34.97;22.55;;;;;;;;;;9993696;28;20109;-68
2022/10/17 02:21:42;;;;;;;30.98;23.17;;;;;;;;;;9978984;28;20166;-69
2022/10/17 02:26:47;;;;;;;25.90;22.42;;;;;;;;;;9990917;28;20055;-68
2022/10/17 02:31:46;;;;;;;32.17;23.17;;;;;;;;;;9970912;28;20078;-68
2022/10/17 02:36:47;;;;;;;32.30;22.42;;;;;;;;;;9975066;28;20056;-68
2022/10/17 02:41:40;;;;;;;27.73;23.08;;;;;;;;;;9976892;28;20066;-69
2022/10/17 02:46:38;;;;;;;29.80;23.30;;;;;;;;;;9985870;28;20141;-68
2022/10/17 02:51:43;;;;;;;30.83;24.08;;;;;;;;;;9965798;28;20062;-69
2022/10/17 02:56:41;;;;;;;30.77;25.27;;;;;;;;;;9954650;28;20069;-68
2022/10/17 03:01:35;;;;;;;36.42;25.80;;;;;;;;;;9978629;28;20058;-69
2022/10/17 03:06:29;;;;;;;29.13;24.58;;;;;;;;;;9968089;28;20046;-68
2022/10/17 03:11:22;;;;;;;34.65;23.38;;;;;;;;;;9971132;28;20042;-69
2022/10/17 03:16:16;;;;;;;30.20;23.63;;;;;;;;;;9985221;28;20104;-69
2022/10/17 03:21:10;;;;;;;29.42;23.20;;;;;;;;;;9999159;28;20145;-69
2022/10/17 03:26:08;;;;;;;28.92;21.80;;;;;;;;;;9977594;28;20277;-69
2022/10/17 03:31:10;;;;;;;34.93;25.03;;;;;;;;;;9978601;28;20132;-69
2022/10/17 03:36:11;;;;;;;28.85;20.27;;;;;;;;;;9979625;28;20050;-69
2022/10/17 03:41:06;;;;;;;27.80;21.52;;;;;;;;;;9995347;28;20058;-69
2022/10/17 03:46:01;;;;;;;26.90;21.63;;;;;;;;;;9983278;28;20101;-69
2022/10/17 03:51:05;;;;;;;27.80;21.25;;;;;;;;;;10000563;28;20081;-68
2022/10/17 03:56:18;;;;;;;28.25;21.13;;;;;;;;;;9983927;28;20462;-68
2022/10/17 04:01:19;;;;;;;31.85;24.90;;;;;;;;;;9986910;28;20078;-68
2022/10/17 04:06:13;;;;;;;32.08;25.23;;;;;;;;;;9988253;28;20085;-68
2022/10/17 04:11:13;;;;;;;35.78;26.92;;;;;;;;;;9996652;28;20141;-68
2022/10/17 04:16:09;;;;;;;34.85;28.58;;;;;;;;;;10007551;28;20043;-68
2022/10/17 04:21:08;;;;;;;35.97;28.65;;;;;;;;;;9975801;28;20051;-68
2022/10/17 04:26:03;;;;;;;38.38;25.63;;;;;;;;;;9989342;28;20054;-68
2022/10/17 04:31:01;;;;;;;35.05;27.33;;;;;;;;;;9988802;28;20061;-69
2022/10/17 04:36:07;;;;;;;37.08;28.95;;;;;;;;;;10001012;28;20050;-69
2022/10/17 04:41:03;;;;;;;40.35;29.45;;;;;;;;;;9983087;28;20061;-69
2022/10/17 04:45:58;;;;;;;39.78;27.60;;;;;;;;;;9975621;28;20504;-69
2022/10/17 04:50:55;;;;;;;32.85;27.00;;;;;;;;;;9996011;28;20090;-69
2022/10/17 04:55:58;;;;;;;41.78;27.23;;;;;;;;;;9989711;28;20465;-69
2022/10/17 05:00:51;;;;;;;34.55;25.38;;;;;;;;;;9995875;28;20039;-72
2022/10/17 05:05:48;;;;;;;37.20;26.38;;;;;;;;;;9996515;28;20146;-70
2022/10/17 05:10:44;;;;;;;36.92;25.55;;;;;;;;;;9988575;28;20050;-70
2022/10/17 05:15:38;;;;;;;30.23;22.67;;;;;;;;;;9982804;28;20446;-70
2022/10/17 05:20:33;;;;;;;36.47;24.80;;;;;;;;;;9970826;28;20047;-68
2022/10/17 05:25:26;;;;;;;33.42;24.90;;;;;;;;;;9992514;28;20149;-67
2022/10/17 05:30:20;;;;;;;33.67;25.15;;;;;;;;;;9983443;28;20153;-68
2022/10/17 05:35:18;;;;;;;33.75;25.95;;;;;;;;;;9976887;28;20493;-67
2022/10/17 05:40:12;;;;;;;37.25;27.75;;;;;;;;;;9997358;28;20050;-68
2022/10/17 05:45:08;;;;;;;40.38;31.48;;;;;;;;;;9983928;28;20868;-67
2022/10/17 05:50:02;;;;;;;44.88;29.83;;;;;;;;;;9980278;28;20493;-67
2022/10/17 05:55:10;;;;;;;39.58;27.05;;;;;;;;;;9985428;28;20050;-67
2022/10/17 06:00:06;;;;;;;38.42;26.40;;;;;;;;;;9976869;28;20422;-68
2022/10/17 06:05:05;;;;;;;48.35;28.42;;;;;;;;;;9976658;28;20494;-67
2022/10/17 06:09:59;;;;;;;42.97;28.75;;;;;;;;;;9991323;28;20046;-67
2022/10/17 06:14:53;;;;;;;47.53;30.02;;;;;;;;;;9980928;28;20043;-69
2022/10/17 06:19:46;;;;;;;45.10;29.80;;;;;;;;;;9982159;28;20062;-68
2022/10/17 06:24:41;;;;;;;40.53;28.08;;;;;;;;;;9994502;28;20108;-67
2022/10/17 06:29:36;;;;;;;48.88;25.63;;;;;;;;;;9972097;28;20085;-67
2022/10/17 06:34:31;;;;;;;46.33;26.48;;;;;;;;;;9978774;28;20078;-67
2022/10/17 06:39:32;;;;;;;64.38;28.52;;;;;;;;;;9979407;28;20042;-71
2022/10/17 06:44:32;;;;;;;44.95;25.75;;;;;;;;;;9980201;28;20073;-70
2022/10/17 06:49:45;;;;;;;56.63;30.13;;;;;;;;;;9996120;28;20582;-70
2022/10/17 06:54:54;;;;;;;46.92;28.25;;;;;;;;;;9983892;28;20081;-72
2022/10/17 06:59:56;;;;;;;54.95;32.20;;;;;;;;;;9982026;28;20054;-71
2022/10/17 07:04:57;;;;;;;52.58;32.05;;;;;;;;;;9981737;28;20137;-71
2022/10/17 07:09:59;;;;;;;55.05;30.92;;;;;;;;;;9985104;28;20054;-70
2022/10/17 07:14:52;;;;;;;45.65;27.83;;;;;;;;;;9981723;28;20069;-69
2022/10/17 07:19:47;;;;;;;63.42;33.05;;;;;;;;;;9985788;28;20147;-76
2022/10/17 07:24:41;;;;;;;49.30;28.63;;;;;;;;;;9989647;28;20050;-78
2022/10/17 07:29:43;;;;;;;51.30;29.73;;;;;;;;;;9991834;28;20081;-76
2022/10/17 07:34:43;;;;;;;41.72;25.00;;;;;;;;;;10008254;28;20054;-76
2022/10/17 07:39:38;;;;;;;35.55;25.73;;;;;;;;;;9992577;28;20046;-76
2022/10/17 07:44:31;;;;;;;30.20;24.60;;;;;;;;;;9990750;28;20137;-77
2022/10/17 07:49:26;;;;;;;32.83;24.60;;;;;;;;;;10006839;28;20042;-77
2022/10/17 07:54:21;;;;;;;32.33;23.63;;;;;;;;;;9992394;28;20053;-77
2022/10/17 07:59:14;;;;;;;37.17;26.50;;;;;;;;;;9988126;28;20077;-77
2022/10/17 08:04:07;;;;;;;34.88;24.45;;;;;;;;;;9988348;28;20568;-77
2022/10/17 08:09:00;;;;;;;49.10;25.85;;;;;;;;;;9987289;28;20383;-78
2022/10/17 08:13:54;;;;;;;38.85;27.60;;;;;;;;;;9985254;28;20081;-72
2022/10/17 08:18:48;;;;;;;45.33;26.33;;;;;;;;;;9986420;28;20057;-74
2022/10/17 08:23:42;;;;;;;37.92;27.58;;;;;;;;;;9985491;28;20066;-74
2022/10/17 08:28:38;;;;;;;39.80;27.90;;;;;;;;;;9986658;28;20065;-74
2022/10/17 08:33:32;;;;;;;38.10;28.83;;;;;;;;;;9988164;28;20086;-73
2022/10/17 08:38:28;;;;;;;38.92;29.45;;;;;;;;;;9987772;28;20046;-73
2022/10/17 08:44:02;;;;;;;43.33;32.60;;;;;;;;;;9987918;28;20454;-74
2022/10/17 08:48:59;;;;;;;38.38;29.42;;;;;;;;;;9987643;28;20065;-74
2022/10/17 08:53:52;;;;;;;34.03;26.63;;;;;;;;;;9984887;28;20054;-74
2022/10/17 08:58:46;;;;;;;29.45;25.42;;;;;;;;;;9988133;28;20054;-74
2022/10/17 09:03:58;;;;;;;30.25;24.02;;;;;;;;;;9987918;28;20074;-74
2022/10/17 09:09:22;;;;;;;24.42;21.83;;;;;;;;;;9987216;28;20034;-74
2022/10/17 09:14:27;;;;;;;22.75;19.38;;;;;;;;;;9987052;28;20073;-74
2022/10/17 09:19:27;;;;;;;23.45;19.13;;;;;;;;;;9990869;28;332698;-76
2022/10/17 09:24:36;;;;;;;23.92;19.48;;;;;;;;;;10000750;28;20095;-75
2022/10/17 09:29:32;;;;;;;23.27;18.67;;;;;;;;;;10003612;28;20085;-75
2022/10/17 09:34:36;;;;;;;21.20;17.50;;;;;;;;;;9989499;28;20086;-75
2022/10/17 09:39:31;;;;;;;19.13;17.10;;;;;;;;;;9987763;28;20100;-76
2022/10/17 09:44:41;;;;;;;28.63;16.17;;;;;;;;;;9987710;28;20054;-75
2022/10/17 09:49:41;;;;;;;24.42;16.85;;;;;;;;;;9987459;28;20061;-73
2022/10/17 09:54:38;;;;;;;21.35;17.80;;;;;;;;;;9988024;28;20062;-76
2022/10/17 09:59:41;;;;;;;20.90;16.80;;;;;;;;;;9985890;28;20064;-75
2022/10/17 10:04:35;;;;;;;20.77;16.40;;;;;;;;;;9987037;28;20316;-76
2022/10/17 10:09:50;;;;;;;21.92;15.93;;;;;;;;;;9988197;28;20089;-76
2022/10/17 10:14:45;;;;;;;22.73;16.42;;;;;;;;;;9975070;28;20141;-77
2022/10/17 10:19:48;;;;;;;20.40;17.95;;;;;;;;;;9982016;28;20050;-76
2022/10/17 10:24:42;;;;;;;19.63;16.80;;;;;;;;;;9974385;28;20070;-77
2022/10/17 10:29:49;;;;;;;24.02;16.25;;;;;;;;;;9983706;28;20059;-77
2022/10/17 10:35:05;;;;;;;25.98;17.25;;;;;;;;;;9994572;28;20048;-77
2022/10/17 10:40:02;;;;;;;19.35;17.23;;;;;;;;;;9982394;28;20474;-77
2022/10/17 10:45:41;;;;;;;25.08;18.55;;;;;;;;;;9981545;28;20129;-77
2022/10/17 10:50:39;;;;;;;20.90;17.95;;;;;;;;;;9810558;29;20542;-80
2022/10/17 10:56:02;;;;;;;21.58;17.45;;;;;;;;;;9949026;28;20154;-78
2022/10/17 11:00:56;;;;;;;20.70;17.95;;;;;;;;;;9942079;28;20043;-79
2022/10/17 11:05:52;;;;;;;23.75;19.10;;;;;;;;;;9989184;28;20061;-83
2022/10/17 11:10:48;;;;;;;21.98;19.63;;;;;;;;;;9975101;28;20125;-74
2022/10/17 11:16:03;;;;;;;23.13;20.70;;;;;;;;;;9991291;28;20453;-78
2022/10/17 11:21:16;;;;;;;22.75;18.48;;;;;;;;;;9993049;28;20054;-77
2022/10/17 11:26:24;;;;;;;22.55;20.15;;;;;;;;;;9971400;28;20078;-78
2022/10/17 11:31:19;;;;;;;20.38;16.52;;;;;;;;;;9984456;28;20057;-76
2022/10/17 11:36:13;;;;;;;21.30;18.98;;;;;;;;;;10000080;28;20086;-75
2022/10/17 11:41:13;;;;;;;25.98;18.30;;;;;;;;;;9983507;28;20058;-75
2022/10/17 11:46:15;;;;;;;19.83;16.98;;;;;;;;;;9981173;28;20062;-76
2022/10/17 11:51:11;;;;;;;21.02;18.67;;;;;;;;;;9979180;28;20522;-76
2022/10/17 11:56:41;;;;;;;25.85;20.70;;;;;;;;;;9984226;28;20137;-76
2022/10/17 12:01:43;;;;;;;27.08;19.48;;;;;;;;;;9974542;28;20058;-73
2022/10/17 12:06:37;;;;;;;25.25;19.98;;;;;;;;;;9995470;28;20061;-74
2022/10/17 12:11:33;;;;;;;25.33;19.00;;;;;;;;;;9988154;28;20068;-75
2022/10/17 12:16:33;;;;;;;22.88;20.33;;;;;;;;;;9992082;28;20062;-75
2022/10/17 12:21:27;;;;;;;24.15;21.23;;;;;;;;;;9984866;28;20050;-76
2022/10/17 12:26:27;;;;;;;22.73;18.35;;;;;;;;;;9989385;28;20454;-76
2022/10/17 12:31:22;;;;;;;25.83;20.95;;;;;;;;;;9990067;28;20082;-75
2022/10/17 12:36:21;;;;;;;25.23;19.48;;;;;;;;;;9983978;28;20054;-74
2022/10/17 12:41:14;;;;;;;22.38;17.25;;;;;;;;;;9990623;28;20054;-75
2022/10/17 12:46:08;;;;;;;19.98;16.67;;;;;;;;;;9989606;28;20101;-75
2022/10/17 12:51:07;;;;;;;29.90;18.98;;;;;;;;;;9989576;28;20508;-74
2022/10/17 12:56:30;;;;;;;;;;;;;;;;;;9989645;28;20038;-75
2022/10/17 13:01:30;;;;;;;23.02;18.52;;;;;;;;;;9990239;28;19964;-75
2022/10/17 13:06:26;;;;;;;29.20;19.35;;;;;;;;;;9988987;28;20065;-75
2022/10/17 13:11:23;;;;;;;24.65;16.50;;;;;;;;;;9990205;28;20054;-75
2022/10/17 13:16:51;;;;;;;27.60;16.88;;;;;;;;;;9988749;28;20084;-77
2022/10/17 13:22:15;;;;;;;20.42;17.00;;;;;;;;;;9937610;28;20050;-76
2022/10/17 13:27:29;;;;;;;21.00;15.45;;;;;;;;;;9983797;28;20053;-75
2022/10/17 13:32:23;;;;;;;27.25;19.35;;;;;;;;;;9988764;28;20061;-76
2022/10/17 13:37:18;;;;;;;23.00;16.63;;;;;;;;;;9987286;28;20057;-76
2022/10/17 13:42:37;;;;;;;25.65;18.48;;;;;;;;;;9988614;28;20051;-76
2022/10/17 13:47:35;;;;;;;20.67;16.90;;;;;;;;;;9987036;28;20409;-76
2022/10/17 13:52:29;;;;;;;22.95;19.40;;;;;;;;;;9985408;28;20074;-75
2022/10/17 13:57:27;;;;;;;22.13;18.98;;;;;;;;;;9986854;28;20565;-75
2022/10/17 14:02:26;;;;;;;25.55;18.80;;;;;;;;;;9980085;28;20550;-75
2022/10/17 14:07:26;;;;;;;23.10;16.58;;;;;;;;;;9978155;28;20054;-75
2022/10/17 14:12:29;;;;;;;25.27;17.42;;;;;;;;;;9988467;28;20497;-75
2022/10/17 14:17:28;;;;;;;22.80;17.08;;;;;;;;;;9987649;28;20113;-75
2022/10/17 14:22:21;;;;;;;22.70;16.80;;;;;;;;;;9976051;28;20046;-75
2022/10/17 14:27:30;;;;;;;18.45;16.25;;;;;;;;;;9985684;28;20082;-75
2022/10/17 14:32:28;;;;;;;19.85;15.25;;;;;;;;;;9982350;28;20135;-75
2022/10/17 14:37:42;;;;;;;28.48;19.40;;;;;;;;;;9980344;28;20054;-75
2022/10/17 14:42:39;;;;;;;22.17;18.65;;;;;;;;;;9981234;28;20046;-75
2022/10/17 14:47:33;;;;;;;23.65;18.75;;;;;;;;;;9985456;28;20082;-76
2022/10/17 14:52:59;;;;;;;23.98;17.77;;;;;;;;;;9983924;28;20039;-79
2022/10/17 14:57:53;;;;;;;22.25;18.15;;;;;;;;;;9973555;28;20042;-72
2022/10/17 15:02:48;;;;;;;17.80;15.90;;;;;;;;;;9985323;28;20077;-73
2022/10/17 15:07:42;;;;;;;17.75;15.60;;;;;;;;;;9983866;28;20050;-73
2022/10/17 15:12:36;;;;;;;22.38;17.85;;;;;;;;;;9979524;28;20421;-72
2022/10/17 15:17:30;;;;;;;30.10;17.42;;;;;;;;;;9980627;28;20048;-72
2022/10/17 15:22:24;;;;;;;25.73;17.13;;;;;;;;;;9995984;28;20561;-72
2022/10/17 15:27:22;;;;;;;21.33;16.40;;;;;;;;;;9979985;28;20054;-72
2022/10/17 15:32:16;;;;;;;24.77;19.30;;;;;;;;;;9982723;28;20058;-74
2022/10/17 15:37:42;;;;;;;23.27;18.17;;;;;;;;;;9975977;28;20122;-72
2022/10/17 15:42:36;;;;;;;23.65;18.92;;;;;;;;;;9979165;28;20038;-73
2022/10/17 15:47:33;;;;;;;28.33;18.35;;;;;;;;;;9990823;28;20132;-72
2022/10/17 15:52:27;;;;;;;24.90;18.57;;;;;;;;;;9992269;28;20406;-72
2022/10/17 15:57:23;;;;;;;24.35;20.25;;;;;;;;;;9986773;28;20453;-72
2022/10/17 16:02:19;;;;;;;27.67;20.77;;;;;;;;;;9992430;28;20081;-72
2022/10/17 16:07:12;;;;;;;35.80;20.92;;;;;;;;;;9993095;28;20046;-72
2022/10/17 16:12:12;;;;;;;31.75;21.75;;;;;;;;;;9986014;28;20049;-72
2022/10/17 16:17:12;;;;;;;27.88;20.95;;;;;;;;;;9981739;28;20050;-74
2022/10/17 16:22:07;;;;;;;30.15;21.90;;;;;;;;;;9991847;28;20464;-74
2022/10/17 16:27:02;;;;;;;31.52;21.50;;;;;;;;;;9983001;28;20386;-73
2022/10/17 16:31:56;;;;;;;29.88;23.05;;;;;;;;;;9985221;28;20109;-72
2022/10/17 16:36:50;;;;;;;26.15;20.65;;;;;;;;;;9997356;28;20540;-71
2022/10/17 16:41:43;;;;;;;30.40;20.90;;;;;;;;;;9991780;28;20090;-72
2022/10/17 16:46:37;;;;;;;23.63;21.10;;;;;;;;;;9997233;28;20362;-71
2022/10/17 16:51:32;;;;;;;35.60;21.10;;;;;;;;;;9990543;28;20046;-71
2022/10/17 16:56:28;;;;;;;54.67;32.30;;;;;;;;;;9984467;28;20557;-72
2022/10/17 17:01:23;;;;;;;60.00;33.85;;;;;;;;;;9992595;28;20046;-71
2022/10/17 17:06:25;;;;;;;65.60;38.42;;;;;;;;;;9994122;28;20438;-71
2022/10/17 17:11:18;;;;;;;50.00;32.70;;;;;;;;;;9994500;28;20081;-72
2022/10/17 17:16:21;;;;;;;39.55;26.48;;;;;;;;;;9990387;28;20046;-71
2022/10/17 17:21:15;;;;;;;41.13;25.08;;;;;;;;;;9989606;28;20089;-71
2022/10/17 17:26:11;;;;;;;42.67;26.73;;;;;;;;;;9990505;28;20057;-70
2022/10/17 17:31:09;;;;;;;34.80;25.48;;;;;;;;;;9990210;28;20054;-71
2022/10/17 17:36:04;;;;;;;38.50;23.52;;;;;;;;;;9995180;28;20042;-70
2022/10/17 17:40:58;;;;;;;27.73;20.83;;;;;;;;;;9988656;28;20057;-70
2022/10/17 17:45:51;;;;;;;29.08;20.27;;;;;;;;;;9989316;28;20089;-71
2022/10/17 17:50:46;;;;;;;37.58;21.25;;;;;;;;;;9989606;28;20074;-71
2022/10/17 17:55:39;;;;;;;23.08;20.55;;;;;;;;;;9988970;28;20077;-70
2022/10/17 18:00:33;;;;;;;30.73;21.17;;;;;;;;;;9990061;28;20408;-70
2022/10/17 18:05:27;;;;;;;27.88;20.77;;;;;;;;;;9981298;28;20069;-71
2022/10/17 18:10:22;;;;;;;29.58;19.77;;;;;;;;;;9986993;28;20505;-71
2022/10/17 18:15:16;;;;;;;24.88;19.75;;;;;;;;;;9987647;28;20062;-72
2022/10/17 18:20:11;;;;;;;26.38;21.67;;;;;;;;;;9984965;28;20145;-72
2022/10/17 18:25:07;;;;;;;27.23;19.73;;;;;;;;;;9990429;28;20046;-72
2022/10/17 18:30:01;;;;;;;27.42;21.63;;;;;;;;;;9988885;28;20058;-72
2022/10/17 18:34:55;;;;;;;37.45;22.40;;;;;;;;;;9980211;28;20498;-73
2022/10/17 18:39:51;;;;;;;28.98;20.48;;;;;;;;;;9986602;28;20050;-72
2022/10/17 18:44:47;;;;;;;45.67;23.20;;;;;;;;;;9987308;28;20050;-71
2022/10/17 18:49:41;;;;;;;26.67;20.80;;;;;;;;;;9986378;28;20046;-71
2022/10/17 18:54:36;;;;;;;34.30;22.35;;;;;;;;;;9989175;28;20050;-74
2022/10/17 18:59:31;;;;;;;30.33;20.52;;;;;;;;;;9987048;28;20081;-73
2022/10/17 19:04:26;;;;;;;25.38;21.02;;;;;;;;;;9973089;28;20050;-72
2022/10/17 19:09:19;;;;;;;31.20;21.25;;;;;;;;;;9970126;28;20051;-72
2022/10/17 19:14:12;;;;;;;33.92;20.70;;;;;;;;;;9984677;28;20062;-72
2022/10/17 19:19:11;;;;;;;29.05;23.38;;;;;;;;;;9976438;28;20066;-73
2022/10/17 19:24:06;;;;;;;;;;;;;;;;;;9979065;28;20054;-74
2022/10/17 19:29:01;;;;;;;25.27;20.92;;;;;;;;;;9987080;28;19926;-75
2022/10/17 19:33:55;;;;;;;30.02;22.05;;;;;;;;;;9981928;28;20047;-75
2022/10/17 19:38:52;;;;;;;24.20;20.55;;;;;;;;;;9985851;28;20054;-73
2022/10/17 19:43:46;;;;;;;26.73;20.73;;;;;;;;;;9990107;28;20505;-73
2022/10/17 19:48:40;;;;;;;30.00;20.23;;;;;;;;;;9987263;28;20077;-73
2022/10/17 19:53:34;;;;;;;30.75;22.23;;;;;;;;;;9985460;28;20078;-73
2022/10/17 19:58:28;;;;;;;51.58;23.60;;;;;;;;;;9987140;28;20058;-75
2022/10/17 20:03:21;;;;;;;28.00;21.50;;;;;;;;;;9986001;28;20060;-74
2022/10/17 20:08:15;;;;;;;29.38;22.63;;;;;;;;;;9988808;28;20054;-75
2022/10/17 20:13:09;;;;;;;31.33;23.65;;;;;;;;;;9984120;28;20596;-74
2022/10/17 20:18:03;;;;;;;27.70;22.25;;;;;;;;;;9984623;28;20527;-74
2022/10/17 20:22:56;;;;;;;35.55;22.60;;;;;;;;;;9986753;28;20137;-72
2022/10/17 20:27:50;;;;;;;27.98;21.10;;;;;;;;;;9983207;28;20473;-74
2022/10/17 20:32:43;;;;;;;35.05;23.92;;;;;;;;;;9982194;28;20105;-74
2022/10/17 20:37:38;;;;;;;34.53;23.70;;;;;;;;;;9979918;28;20054;-75
2022/10/17 20:42:36;;;;;;;27.23;22.63;;;;;;;;;;9984917;28;20046;-72
2022/10/17 20:47:30;;;;;;;32.83;23.10;;;;;;;;;;9981160;28;20047;-72
2022/10/17 20:52:39;;;;;;;27.20;22.60;;;;;;;;;;9986440;28;20069;-72
2022/10/17 20:57:33;;;;;;;32.30;22.20;;;;;;;;;;9987248;28;20042;-72
2022/10/17 21:02:27;;;;;;;34.47;25.15;;;;;;;;;;9983342;28;20054;-72
2022/10/17 21:07:24;;;;;;;32.03;22.00;;;;;;;;;;9981338;28;20476;-72
2022/10/17 21:12:18;;;;;;;30.60;23.98;;;;;;;;;;9983431;28;20414;-78
2022/10/17 21:17:28;;;;;;;29.02;22.95;;;;;;;;;;9981848;28;20496;-78
2022/10/17 21:22:22;;;;;;;30.67;23.08;;;;;;;;;;9986022;28;20055;-76
2022/10/17 21:27:18;;;;;;;34.40;24.27;;;;;;;;;;9980487;28;20046;-76
2022/10/17 21:32:12;;;;;;;31.05;24.63;;;;;;;;;;9984151;28;20056;-76
2022/10/17 21:37:26;;;;;;;32.00;24.65;;;;;;;;;;9984360;28;20129;-74
2022/10/17 21:42:20;;;;;;;27.08;22.42;;;;;;;;;;9977845;28;20509;-74
2022/10/17 21:47:15;;;;;;;35.00;24.90;;;;;;;;;;9983331;28;20055;-76
2022/10/17 21:52:09;;;;;;;39.90;26.52;;;;;;;;;;9974890;28;20155;-75
2022/10/17 21:57:03;;;;;;;41.20;27.83;;;;;;;;;;9988504;28;20134;-76
2022/10/17 22:01:56;;;;;;;32.80;25.08;;;;;;;;;;9979895;28;20069;-74
2022/10/17 22:06:52;;;;;;;31.60;25.67;;;;;;;;;;9986253;28;20547;-78
2022/10/17 22:11:49;;;;;;;34.38;24.92;;;;;;;;;;9989060;28;20513;-76
2022/10/17 22:16:44;;;;;;;34.90;25.83;;;;;;;;;;9988473;28;20409;-76
2022/10/17 22:21:38;;;;;;;30.30;24.42;;;;;;;;;;9987600;28;20057;-75
2022/10/17 22:26:32;;;;;;;44.17;25.67;;;;;;;;;;9982965;28;20078;-76
2022/10/17 22:31:25;;;;;;;34.83;27.90;;;;;;;;;;10002933;28;20417;-76
2022/10/17 22:36:19;;;;;;;33.03;28.50;;;;;;;;;;9987840;28;20489;-75
2022/10/17 22:41:12;;;;;;;32.45;25.50;;;;;;;;;;9987664;28;20052;-75
2022/10/17 22:46:06;;;;;;;31.15;25.35;;;;;;;;;;9986696;28;20054;-76
2022/10/17 22:51:01;;;;;;;28.67;21.95;;;;;;;;;;9985037;28;20062;-75
2022/10/17 22:56:00;;;;;;;35.15;25.40;;;;;;;;;;9984587;28;20046;-76
2022/10/17 23:00:54;;;;;;;30.75;23.30;;;;;;;;;;9980962;28;20038;-76
2022/10/17 23:05:49;;;;;;;30.73;24.88;;;;;;;;;;9980326;28;20085;-76
2022/10/17 23:10:43;;;;;;;33.65;24.55;;;;;;;;;;9986553;28;20100;-75
2022/10/17 23:15:37;;;;;;;31.27;24.60;;;;;;;;;;9978524;28;20062;-75
2022/10/17 23:20:30;;;;;;;36.60;24.88;;;;;;;;;;9986221;28;20068;-75
2022/10/17 23:25:25;;;;;;;35.28;24.75;;;;;;;;;;9977128;28;20528;-75
2022/10/17 23:30:18;;;;;;;41.15;25.48;;;;;;;;;;9978971;28;20073;-76
2022/10/17 23:35:12;;;;;;;31.30;24.35;;;;;;;;;;9980061;28;20100;-76
2022/10/17 23:40:08;;;;;;;30.83;23.58;;;;;;;;;;9983398;28;20110;-76
2022/10/17 23:45:02;;;;;;;31.48;23.90;;;;;;;;;;9986335;28;20049;-76
2022/10/17 23:49:56;;;;;;;31.80;25.35;;;;;;;;;;9983035;28;20128;-75
2022/10/17 23:54:49;;;;;;;29.70;23.95;;;;;;;;;;9985360;28;20057;-75
2022/10/17 23:59:43;;;;;;;33.08;24.27;;;;;;;;;;9984169;28;20382;-75
